sensor_id;sensor_type;location;lat;lon;timestamp;P1;durP1;ratioP1;P2;durP2;ratioP2
13311;SDS011;34033;48.672;9.376;2023-02-28T00:00:34;1.73;;;1.30;;
13311;SDS011;34033;48.672;9.376;2023-02-28T00:03:00;1.20;;;1.10;;
13311;SDS011;34033;48.672;9.376;2023-02-28T00:05:27;1.17;;;1.10;;
13311;SDS011;34033;48.672;9.376;2023-02-28T00:07:52;1.43;;;1.33;;
13311;SDS011;34033;48.672;9.376;2023-02-28T00:10:19;1.27;;;1.20;;
13311;SDS011;34033;48.672;9.376;2023-02-28T00:12:48;1.13;;;1.07;;
13311;SDS011;34033;48.672;9.376;2023-02-28T00:15:14;1.30;;;1.20;;
13311;SDS011;34033;48.672;9.376;2023-02-28T00:17:39;1.03;;;1.03;;
13311;SDS011;34033;48.672;9.376;2023-02-28T00:20:05;1.27;;;1.20;;
13311;SDS011;34033;48.672;9.376;2023-02-28T00:22:37;1.47;;;1.37;;
13311;SDS011;34033;48.672;9.376;2023-02-28T00:25:03;1.37;;;1.20;;
13311;SDS011;34033;48.672;9.376;2023-02-28T00:27:29;1.63;;;1.30;;
13311;SDS011;34033;48.672;9.376;2023-02-28T00:29:55;1.57;;;1.47;;
13311;SDS011;34033;48.672;9.376;2023-02-28T00:32:21;1.00;;;1.00;;
13311;SDS011;34033;48.672;9.376;2023-02-28T00:34:46;1.40;;;1.30;;
13311;SDS011;34033;48.672;9.376;2023-02-28T00:37:11;1.33;;;1.23;;
13311;SDS011;34033;48.672;9.376;2023-02-28T00:39:37;1.63;;;1.50;;
13311;SDS011;34033;48.672;9.376;2023-02-28T00:42:04;1.20;;;1.10;;
13311;SDS011;34033;48.672;9.376;2023-02-28T00:44:30;1.30;;;1.20;;
13311;SDS011;34033;48.672;9.376;2023-02-28T00:46:56;1.10;;;1.10;;
13311;SDS011;34033;48.672;9.376;2023-02-28T00:49:22;1.27;;;1.17;;
13311;SDS011;34033;48.672;9.376;2023-02-28T00:51:49;1.60;;;1.00;;
13311;SDS011;34033;48.672;9.376;2023-02-28T00:54:14;1.40;;;1.30;;
13311;SDS011;34033;48.672;9.376;2023-02-28T00:56:40;1.13;;;1.10;;
13311;SDS011;34033;48.672;9.376;2023-02-28T00:59:05;1.47;;;1.10;;
13311;SDS011;34033;48.672;9.376;2023-02-28T01:01:31;1.00;;;1.00;;
13311;SDS011;34033;48.672;9.376;2023-02-28T01:03:56;1.53;;;1.30;;
13311;SDS011;34033;48.672;9.376;2023-02-28T01:06:22;1.03;;;1.03;;
13311;SDS011;34033;48.672;9.376;2023-02-28T01:08:47;1.20;;;1.10;;
13311;SDS011;34033;48.672;9.376;2023-02-28T01:11:13;2.20;;;1.00;;
13311;SDS011;34033;48.672;9.376;2023-02-28T01:13:41;2.20;;;1.40;;
13311;SDS011;34033;48.672;9.376;2023-02-28T01:16:06;1.47;;;1.13;;
13311;SDS011;34033;48.672;9.376;2023-02-28T01:18:32;1.63;;;1.30;;
13311;SDS011;34033;48.672;9.376;2023-02-28T01:20:58;1.20;;;1.10;;
13311;SDS011;34033;48.672;9.376;2023-02-28T01:23:23;1.40;;;1.30;;
13311;SDS011;34033;48.672;9.376;2023-02-28T01:25:49;1.00;;;0.90;;
13311;SDS011;34033;48.672;9.376;2023-02-28T01:28:15;1.30;;;1.20;;
13311;SDS011;34033;48.672;9.376;2023-02-28T01:30:41;1.67;;;1.57;;
13311;SDS011;34033;48.672;9.376;2023-02-28T01:33:06;1.30;;;1.20;;
13311;SDS011;34033;48.672;9.376;2023-02-28T01:35:32;1.33;;;1.23;;
13311;SDS011;34033;48.672;9.376;2023-02-28T01:37:59;1.03;;;1.00;;
13311;SDS011;34033;48.672;9.376;2023-02-28T01:40:24;2.50;;;1.30;;
13311;SDS011;34033;48.672;9.376;2023-02-28T01:42:49;1.13;;;1.10;;
13311;SDS011;34033;48.672;9.376;2023-02-28T01:45:28;1.40;;;1.30;;
13311;SDS011;34033;48.672;9.376;2023-02-28T01:47:58;1.30;;;1.20;;
13311;SDS011;34033;48.672;9.376;2023-02-28T01:50:30;1.30;;;1.20;;
13311;SDS011;34033;48.672;9.376;2023-02-28T01:53:00;1.40;;;1.30;;
13311;SDS011;34033;48.672;9.376;2023-02-28T01:55:29;1.30;;;1.20;;
13311;SDS011;34033;48.672;9.376;2023-02-28T01:57:58;1.40;;;1.30;;
13311;SDS011;34033;48.672;9.376;2023-02-28T02:00:27;1.03;;;1.03;;
13311;SDS011;34033;48.672;9.376;2023-02-28T02:03:04;1.97;;;1.33;;
13311;SDS011;34033;48.672;9.376;2023-02-28T02:05:33;1.40;;;1.30;;
13311;SDS011;34033;48.672;9.376;2023-02-28T02:08:04;2.30;;;1.47;;
13311;SDS011;34033;48.672;9.376;2023-02-28T02:10:41;1.30;;;1.20;;
13311;SDS011;34033;48.672;9.376;2023-02-28T02:35:49;1.10;;;1.10;;
13311;SDS011;34033;48.672;9.376;2023-02-28T02:38:28;2.47;;;1.40;;
13311;SDS011;34033;48.672;9.376;2023-02-28T02:41:04;1.67;;;1.40;;
13311;SDS011;34033;48.672;9.376;2023-02-28T02:43:46;1.30;;;1.20;;
13311;SDS011;34033;48.672;9.376;2023-02-28T02:46:19;3.20;;;1.37;;
13311;SDS011;34033;48.672;9.376;2023-02-28T02:48:48;1.70;;;1.60;;
13311;SDS011;34033;48.672;9.376;2023-02-28T02:51:18;1.60;;;1.50;;
13311;SDS011;34033;48.672;9.376;2023-02-28T02:53:48;1.30;;;1.20;;
13311;SDS011;34033;48.672;9.376;2023-02-28T02:56:18;1.53;;;1.30;;
13311;SDS011;34033;48.672;9.376;2023-02-28T02:58:46;1.20;;;1.20;;
13311;SDS011;34033;48.672;9.376;2023-02-28T03:01:20;1.50;;;1.40;;
13311;SDS011;34033;48.672;9.376;2023-02-28T03:03:54;1.50;;;1.40;;
13311;SDS011;34033;48.672;9.376;2023-02-28T03:06:22;1.70;;;1.60;;
13311;SDS011;34033;48.672;9.376;2023-02-28T03:08:47;1.67;;;1.53;;
13311;SDS011;34033;48.672;9.376;2023-02-28T03:11:13;1.33;;;1.20;;
13311;SDS011;34033;48.672;9.376;2023-02-28T03:19:02;1.30;;;1.20;;
13311;SDS011;34033;48.672;9.376;2023-02-28T03:21:36;1.57;;;1.30;;
13311;SDS011;34033;48.672;9.376;2023-02-28T03:24:06;1.77;;;1.67;;
13311;SDS011;34033;48.672;9.376;2023-02-28T03:26:36;4.43;;;1.53;;
13311;SDS011;34033;48.672;9.376;2023-02-28T03:29:15;1.80;;;1.30;;
13311;SDS011;34033;48.672;9.376;2023-02-28T03:31:58;1.90;;;1.23;;
13311;SDS011;34033;48.672;9.376;2023-02-28T03:34:30;1.30;;;1.20;;
13311;SDS011;34033;48.672;9.376;2023-02-28T03:36:59;1.43;;;1.33;;
13311;SDS011;34033;48.672;9.376;2023-02-28T03:39:34;1.50;;;1.40;;
13311;SDS011;34033;48.672;9.376;2023-02-28T03:42:06;1.83;;;1.50;;
13311;SDS011;34033;48.672;9.376;2023-02-28T03:44:54;1.50;;;1.40;;
13311;SDS011;34033;48.672;9.376;2023-02-28T03:47:25;1.50;;;1.40;;
13311;SDS011;34033;48.672;9.376;2023-02-28T03:52:37;1.60;;;1.50;;
13311;SDS011;34033;48.672;9.376;2023-02-28T03:55:10;1.60;;;1.33;;
13311;SDS011;34033;48.672;9.376;2023-02-28T03:57:57;2.83;;;1.60;;
13311;SDS011;34033;48.672;9.376;2023-02-28T04:00:31;1.77;;;1.60;;
13311;SDS011;34033;48.672;9.376;2023-02-28T04:03:02;1.30;;;1.20;;
13311;SDS011;34033;48.672;9.376;2023-02-28T04:05:27;2.03;;;1.63;;
13311;SDS011;34033;48.672;9.376;2023-02-28T04:07:53;1.33;;;1.27;;
13311;SDS011;34033;48.672;9.376;2023-02-28T04:10:28;1.57;;;1.47;;
13311;SDS011;34033;48.672;9.376;2023-02-28T04:12:53;1.37;;;1.27;;
13311;SDS011;34033;48.672;9.376;2023-02-28T04:15:18;1.70;;;1.60;;
13311;SDS011;34033;48.672;9.376;2023-02-28T04:17:47;1.40;;;1.30;;
13311;SDS011;34033;48.672;9.376;2023-02-28T04:20:13;4.50;;;1.90;;
13311;SDS011;34033;48.672;9.376;2023-02-28T04:22:38;1.60;;;1.50;;
13311;SDS011;34033;48.672;9.376;2023-02-28T04:25:04;1.93;;;1.60;;
13311;SDS011;34033;48.672;9.376;2023-02-28T04:27:30;1.87;;;1.70;;
13311;SDS011;34033;48.672;9.376;2023-02-28T04:29:55;1.93;;;1.43;;
13311;SDS011;34033;48.672;9.376;2023-02-28T04:32:21;1.60;;;1.50;;
13311;SDS011;34033;48.672;9.376;2023-02-28T04:34:46;1.80;;;1.70;;
13311;SDS011;34033;48.672;9.376;2023-02-28T04:37:11;1.60;;;1.50;;
13311;SDS011;34033;48.672;9.376;2023-02-28T04:39:37;2.20;;;1.87;;
13311;SDS011;34033;48.672;9.376;2023-02-28T04:42:03;1.80;;;1.70;;
13311;SDS011;34033;48.672;9.376;2023-02-28T04:44:28;1.90;;;1.60;;
13311;SDS011;34033;48.672;9.376;2023-02-28T04:46:54;1.70;;;1.60;;
13311;SDS011;34033;48.672;9.376;2023-02-28T04:49:19;3.67;;;1.77;;
13311;SDS011;34033;48.672;9.376;2023-02-28T04:51:44;1.83;;;1.70;;
13311;SDS011;34033;48.672;9.376;2023-02-28T04:54:10;1.70;;;1.60;;
13311;SDS011;34033;48.672;9.376;2023-02-28T04:56:35;2.20;;;1.97;;
13311;SDS011;34033;48.672;9.376;2023-02-28T04:59:00;1.50;;;1.40;;
13311;SDS011;34033;48.672;9.376;2023-02-28T05:01:27;1.53;;;1.43;;
13311;SDS011;34033;48.672;9.376;2023-02-28T05:03:57;1.80;;;1.70;;
13311;SDS011;34033;48.672;9.376;2023-02-28T05:06:25;2.93;;;1.27;;
13311;SDS011;34033;48.672;9.376;2023-02-28T05:08:52;2.87;;;2.10;;
13311;SDS011;34033;48.672;9.376;2023-02-28T05:11:22;1.83;;;1.73;;
13311;SDS011;34033;48.672;9.376;2023-02-28T05:13:50;3.27;;;1.80;;
13311;SDS011;34033;48.672;9.376;2023-02-28T05:16:16;2.37;;;1.90;;
13311;SDS011;34033;48.672;9.376;2023-02-28T05:18:42;2.23;;;2.00;;
13311;SDS011;34033;48.672;9.376;2023-02-28T05:21:42;2.20;;;2.00;;
13311;SDS011;34033;48.672;9.376;2023-02-28T05:24:02;2.40;;;1.80;;
13311;SDS011;34033;48.672;9.376;2023-02-28T05:26:29;2.20;;;1.90;;
13311;SDS011;34033;48.672;9.376;2023-02-28T05:28:56;2.37;;;2.20;;
13311;SDS011;34033;48.672;9.376;2023-02-28T05:31:22;2.57;;;1.80;;
13311;SDS011;34033;48.672;9.376;2023-02-28T05:33:48;2.20;;;2.00;;
13311;SDS011;34033;48.672;9.376;2023-02-28T05:36:13;1.90;;;1.80;;
13311;SDS011;34033;48.672;9.376;2023-02-28T05:38:39;2.43;;;2.17;;
13311;SDS011;34033;48.672;9.376;2023-02-28T05:41:05;2.17;;;2.00;;
13311;SDS011;34033;48.672;9.376;2023-02-28T05:43:34;2.33;;;2.10;;
13311;SDS011;34033;48.672;9.376;2023-02-28T05:46:02;1.90;;;1.70;;
13311;SDS011;34033;48.672;9.376;2023-02-28T05:48:29;2.13;;;1.80;;
13311;SDS011;34033;48.672;9.376;2023-02-28T05:50:54;2.20;;;2.00;;
13311;SDS011;34033;48.672;9.376;2023-02-28T05:53:22;2.40;;;2.20;;
13311;SDS011;34033;48.672;9.376;2023-02-28T05:55:47;2.93;;;2.10;;
13311;SDS011;34033;48.672;9.376;2023-02-28T05:58:13;2.07;;;1.93;;
13311;SDS011;34033;48.672;9.376;2023-02-28T06:00:38;3.30;;;2.07;;
13311;SDS011;34033;48.672;9.376;2023-02-28T06:03:03;4.00;;;2.20;;
13311;SDS011;34033;48.672;9.376;2023-02-28T06:05:29;2.47;;;1.87;;
13311;SDS011;34033;48.672;9.376;2023-02-28T06:07:54;2.17;;;1.97;;
13311;SDS011;34033;48.672;9.376;2023-02-28T06:10:19;2.20;;;2.00;;
13311;SDS011;34033;48.672;9.376;2023-02-28T06:12:45;2.90;;;2.33;;
13311;SDS011;34033;48.672;9.376;2023-02-28T06:15:14;2.37;;;2.17;;
13311;SDS011;34033;48.672;9.376;2023-02-28T06:17:41;3.20;;;2.33;;
13311;SDS011;34033;48.672;9.376;2023-02-28T06:20:07;2.50;;;2.30;;
13311;SDS011;34033;48.672;9.376;2023-02-28T06:22:35;2.17;;;1.97;;
13311;SDS011;34033;48.672;9.376;2023-02-28T06:25:01;2.77;;;2.47;;
13311;SDS011;34033;48.672;9.376;2023-02-28T06:27:26;2.20;;;2.00;;
13311;SDS011;34033;48.672;9.376;2023-02-28T06:29:55;2.70;;;2.30;;
13311;SDS011;34033;48.672;9.376;2023-02-28T06:32:21;2.30;;;2.10;;
13311;SDS011;34033;48.672;9.376;2023-02-28T06:34:46;2.33;;;2.13;;
13311;SDS011;34033;48.672;9.376;2023-02-28T06:37:12;2.30;;;2.10;;
13311;SDS011;34033;48.672;9.376;2023-02-28T06:39:37;2.90;;;2.23;;
13311;SDS011;34033;48.672;9.376;2023-02-28T06:42:03;2.17;;;1.97;;
13311;SDS011;34033;48.672;9.376;2023-02-28T06:44:28;3.60;;;2.00;;
13311;SDS011;34033;48.672;9.376;2023-02-28T06:46:59;2.30;;;2.10;;
13311;SDS011;34033;48.672;9.376;2023-02-28T06:49:29;2.13;;;1.97;;
13311;SDS011;34033;48.672;9.376;2023-02-28T06:51:56;2.60;;;2.40;;
13311;SDS011;34033;48.672;9.376;2023-02-28T06:54:21;3.40;;;2.00;;
13311;SDS011;34033;48.672;9.376;2023-02-28T06:56:46;3.03;;;2.23;;
13311;SDS011;34033;48.672;9.376;2023-02-28T06:59:12;2.70;;;2.40;;
13311;SDS011;34033;48.672;9.376;2023-02-28T07:01:37;2.53;;;2.33;;
13311;SDS011;34033;48.672;9.376;2023-02-28T07:04:04;2.43;;;2.23;;
13311;SDS011;34033;48.672;9.376;2023-02-28T07:06:30;4.67;;;2.80;;
13311;SDS011;34033;48.672;9.376;2023-02-28T07:08:55;2.97;;;2.53;;
13311;SDS011;34033;48.672;9.376;2023-02-28T07:11:21;2.40;;;2.20;;
13311;SDS011;34033;48.672;9.376;2023-02-28T07:13:50;3.37;;;2.60;;
13311;SDS011;34033;48.672;9.376;2023-02-28T07:16:16;2.60;;;2.33;;
13311;SDS011;34033;48.672;9.376;2023-02-28T07:18:41;3.07;;;2.30;;
13311;SDS011;34033;48.672;9.376;2023-02-28T07:21:07;3.60;;;2.43;;
13311;SDS011;34033;48.672;9.376;2023-02-28T07:23:35;3.30;;;2.60;;
13311;SDS011;34033;48.672;9.376;2023-02-28T07:26:00;4.43;;;2.20;;
13311;SDS011;34033;48.672;9.376;2023-02-28T07:28:26;2.73;;;2.53;;
13311;SDS011;34033;48.672;9.376;2023-02-28T07:30:52;3.50;;;2.50;;
13311;SDS011;34033;48.672;9.376;2023-02-28T07:33:17;2.70;;;2.50;;
13311;SDS011;34033;48.672;9.376;2023-02-28T07:35:43;2.33;;;2.23;;
13311;SDS011;34033;48.672;9.376;2023-02-28T07:38:08;3.67;;;2.50;;
13311;SDS011;34033;48.672;9.376;2023-02-28T07:40:34;3.67;;;2.83;;
13311;SDS011;34033;48.672;9.376;2023-02-28T07:43:00;2.87;;;2.67;;
13311;SDS011;34033;48.672;9.376;2023-02-28T07:45:26;4.00;;;2.60;;
13311;SDS011;34033;48.672;9.376;2023-02-28T07:47:53;3.67;;;2.67;;
13311;SDS011;34033;48.672;9.376;2023-02-28T07:50:19;3.03;;;2.73;;
13311;SDS011;34033;48.672;9.376;2023-02-28T07:52:44;2.87;;;2.57;;
13311;SDS011;34033;48.672;9.376;2023-02-28T07:55:09;2.87;;;2.63;;
13311;SDS011;34033;48.672;9.376;2023-02-28T07:57:35;3.43;;;2.70;;
13311;SDS011;34033;48.672;9.376;2023-02-28T08:00:01;2.60;;;2.40;;
13311;SDS011;34033;48.672;9.376;2023-02-28T08:02:29;2.73;;;2.53;;
13311;SDS011;34033;48.672;9.376;2023-02-28T08:04:54;3.63;;;2.90;;
13311;SDS011;34033;48.672;9.376;2023-02-28T08:07:19;3.87;;;3.00;;
13311;SDS011;34033;48.672;9.376;2023-02-28T08:09:45;3.93;;;2.53;;
13311;SDS011;34033;48.672;9.376;2023-02-28T08:12:10;3.07;;;2.77;;
13311;SDS011;34033;48.672;9.376;2023-02-28T08:14:36;4.43;;;2.80;;
13311;SDS011;34033;48.672;9.376;2023-02-28T08:17:02;2.70;;;2.47;;
13311;SDS011;34033;48.672;9.376;2023-02-28T08:19:29;3.33;;;2.80;;
13311;SDS011;34033;48.672;9.376;2023-02-28T08:21:55;3.43;;;2.63;;
13311;SDS011;34033;48.672;9.376;2023-02-28T08:24:21;3.57;;;3.00;;
13311;SDS011;34033;48.672;9.376;2023-02-28T08:26:47;4.43;;;3.20;;
13311;SDS011;34033;48.672;9.376;2023-02-28T08:29:12;4.97;;;3.20;;
13311;SDS011;34033;48.672;9.376;2023-02-28T08:31:37;3.80;;;2.90;;
13311;SDS011;34033;48.672;9.376;2023-02-28T08:34:06;3.30;;;3.00;;
13311;SDS011;34033;48.672;9.376;2023-02-28T08:36:32;3.27;;;2.97;;
13311;SDS011;34033;48.672;9.376;2023-02-28T08:38:58;3.53;;;2.70;;
13311;SDS011;34033;48.672;9.376;2023-02-28T08:41:24;3.00;;;2.60;;
13311;SDS011;34033;48.672;9.376;2023-02-28T08:43:50;3.30;;;3.00;;
13311;SDS011;34033;48.672;9.376;2023-02-28T08:46:15;2.73;;;2.30;;
13311;SDS011;34033;48.672;9.376;2023-02-28T08:48:40;3.37;;;3.00;;
13311;SDS011;34033;48.672;9.376;2023-02-28T08:51:07;3.80;;;3.00;;
13311;SDS011;34033;48.672;9.376;2023-02-28T08:53:38;3.57;;;2.50;;
13311;SDS011;34033;48.672;9.376;2023-02-28T08:56:05;3.30;;;2.87;;
13311;SDS011;34033;48.672;9.376;2023-02-28T08:58:33;3.30;;;2.60;;
13311;SDS011;34033;48.672;9.376;2023-02-28T09:00:59;5.30;;;2.87;;
13311;SDS011;34033;48.672;9.376;2023-02-28T09:03:25;2.97;;;2.50;;
13311;SDS011;34033;48.672;9.376;2023-02-28T09:05:55;3.17;;;2.73;;
13311;SDS011;34033;48.672;9.376;2023-02-28T09:08:22;5.27;;;2.97;;
13311;SDS011;34033;48.672;9.376;2023-02-28T09:10:49;3.20;;;2.63;;
13311;SDS011;34033;48.672;9.376;2023-02-28T09:13:14;3.43;;;2.97;;
13311;SDS011;34033;48.672;9.376;2023-02-28T09:15:39;4.43;;;3.10;;
13311;SDS011;34033;48.672;9.376;2023-02-28T09:18:05;4.47;;;2.90;;
13311;SDS011;34033;48.672;9.376;2023-02-28T09:20:30;3.30;;;3.00;;
13311;SDS011;34033;48.672;9.376;2023-02-28T09:22:55;3.87;;;3.00;;
13311;SDS011;34033;48.672;9.376;2023-02-28T09:25:21;3.47;;;2.93;;
13311;SDS011;34033;48.672;9.376;2023-02-28T09:27:46;3.43;;;3.00;;
13311;SDS011;34033;48.672;9.376;2023-02-28T09:30:12;3.30;;;3.00;;
13311;SDS011;34033;48.672;9.376;2023-02-28T09:32:37;4.00;;;2.73;;
13311;SDS011;34033;48.672;9.376;2023-02-28T09:35:03;2.73;;;2.50;;
13311;SDS011;34033;48.672;9.376;2023-02-28T09:37:29;2.93;;;2.67;;
13311;SDS011;34033;48.672;9.376;2023-02-28T09:39:55;3.20;;;2.83;;
13311;SDS011;34033;48.672;9.376;2023-02-28T09:42:22;2.80;;;2.60;;
13311;SDS011;34033;48.672;9.376;2023-02-28T09:44:53;3.50;;;3.10;;
13311;SDS011;34033;48.672;9.376;2023-02-28T09:47:29;4.07;;;3.03;;
13311;SDS011;34033;48.672;9.376;2023-02-28T09:49:58;3.33;;;2.87;;
13311;SDS011;34033;48.672;9.376;2023-02-28T09:52:36;3.40;;;3.10;;
13311;SDS011;34033;48.672;9.376;2023-02-28T09:55:17;4.03;;;3.13;;
13311;SDS011;34033;48.672;9.376;2023-02-28T09:57:47;3.27;;;2.90;;
13311;SDS011;34033;48.672;9.376;2023-02-28T10:00:18;3.20;;;2.90;;
13311;SDS011;34033;48.672;9.376;2023-02-28T10:06:14;5.90;;;3.40;;
13311;SDS011;34033;48.672;9.376;2023-02-28T10:11:51;3.33;;;3.03;;
13311;SDS011;34033;48.672;9.376;2023-02-28T10:14:20;4.80;;;3.30;;
13311;SDS011;34033;48.672;9.376;2023-02-28T10:16:48;3.90;;;2.83;;
13311;SDS011;34033;48.672;9.376;2023-02-28T10:22:01;7.60;;;3.43;;
13311;SDS011;34033;48.672;9.376;2023-02-28T10:24:35;3.60;;;3.10;;
13311;SDS011;34033;48.672;9.376;2023-02-28T10:29:40;3.20;;;2.90;;
13311;SDS011;34033;48.672;9.376;2023-02-28T10:32:17;3.63;;;3.17;;
13311;SDS011;34033;48.672;9.376;2023-02-28T10:37:57;5.30;;;2.90;;
13311;SDS011;34033;48.672;9.376;2023-02-28T10:40:30;4.37;;;3.00;;
13311;SDS011;34033;48.672;9.376;2023-02-28T10:43:03;2.97;;;2.70;;
13311;SDS011;34033;48.672;9.376;2023-02-28T10:45:34;5.00;;;3.47;;
13311;SDS011;34033;48.672;9.376;2023-02-28T10:58:25;3.93;;;3.53;;
13311;SDS011;34033;48.672;9.376;2023-02-28T11:00:52;3.27;;;2.90;;
13311;SDS011;34033;48.672;9.376;2023-02-28T11:05:58;3.63;;;3.07;;
13311;SDS011;34033;48.672;9.376;2023-02-28T11:08:29;3.70;;;3.30;;
13311;SDS011;34033;48.672;9.376;2023-02-28T11:10:55;4.33;;;3.67;;
13311;SDS011;34033;48.672;9.376;2023-02-28T11:13:27;3.20;;;2.90;;
13311;SDS011;34033;48.672;9.376;2023-02-28T11:15:57;3.70;;;3.10;;
13311;SDS011;34033;48.672;9.376;2023-02-28T11:21:24;4.93;;;3.73;;
13311;SDS011;34033;48.672;9.376;2023-02-28T11:23:58;4.57;;;3.40;;
13311;SDS011;34033;48.672;9.376;2023-02-28T11:26:36;3.83;;;3.40;;
13311;SDS011;34033;48.672;9.376;2023-02-28T11:29:11;3.20;;;2.90;;
13311;SDS011;34033;48.672;9.376;2023-02-28T11:31:42;3.73;;;3.10;;
13311;SDS011;34033;48.672;9.376;2023-02-28T11:34:24;3.87;;;3.40;;
13311;SDS011;34033;48.672;9.376;2023-02-28T11:36:51;3.57;;;3.27;;
13311;SDS011;34033;48.672;9.376;2023-02-28T11:39:19;3.83;;;3.47;;
13311;SDS011;34033;48.672;9.376;2023-02-28T11:47:28;4.97;;;3.90;;
13311;SDS011;34033;48.672;9.376;2023-02-28T11:52:53;5.80;;;3.77;;
13311;SDS011;34033;48.672;9.376;2023-02-28T12:03:54;4.10;;;3.70;;
13311;SDS011;34033;48.672;9.376;2023-02-28T12:09:03;5.10;;;4.00;;
13311;SDS011;34033;48.672;9.376;2023-02-28T12:20:51;3.70;;;3.30;;
13311;SDS011;34033;48.672;9.376;2023-02-28T12:28:46;3.90;;;3.60;;
13311;SDS011;34033;48.672;9.376;2023-02-28T12:34:07;5.10;;;3.60;;
13311;SDS011;34033;48.672;9.376;2023-02-28T12:36:37;4.23;;;3.83;;
13311;SDS011;34033;48.672;9.376;2023-02-28T12:41:42;6.90;;;4.07;;
13311;SDS011;34033;48.672;9.376;2023-02-28T12:47:03;3.87;;;3.43;;
13311;SDS011;34033;48.672;9.376;2023-02-28T12:49:31;3.33;;;3.03;;
13311;SDS011;34033;48.672;9.376;2023-02-28T12:52:01;4.67;;;3.80;;
13311;SDS011;34033;48.672;9.376;2023-02-28T12:54:30;3.83;;;3.43;;
13311;SDS011;34033;48.672;9.376;2023-02-28T12:59:41;4.20;;;3.60;;
13311;SDS011;34033;48.672;9.376;2023-02-28T13:10:45;4.70;;;3.90;;
13311;SDS011;34033;48.672;9.376;2023-02-28T13:13:18;4.53;;;4.13;;
13311;SDS011;34033;48.672;9.376;2023-02-28T13:15:57;5.20;;;3.70;;
13311;SDS011;34033;48.672;9.376;2023-02-28T13:18:43;4.37;;;3.80;;
13311;SDS011;34033;48.672;9.376;2023-02-28T13:26:21;4.57;;;4.10;;
13311;SDS011;34033;48.672;9.376;2023-02-28T13:28:57;4.67;;;3.70;;
13311;SDS011;34033;48.672;9.376;2023-02-28T13:31:23;5.13;;;4.07;;
13311;SDS011;34033;48.672;9.376;2023-02-28T13:38:47;4.40;;;3.53;;
13311;SDS011;34033;48.672;9.376;2023-02-28T13:41:40;4.23;;;3.63;;
13311;SDS011;34033;48.672;9.376;2023-02-28T13:44:07;4.10;;;3.70;;
13311;SDS011;34033;48.672;9.376;2023-02-28T13:49:20;3.83;;;3.43;;
13311;SDS011;34033;48.672;9.376;2023-02-28T13:51:46;4.20;;;3.80;;
13311;SDS011;34033;48.672;9.376;2023-02-28T13:54:18;4.13;;;3.50;;
13311;SDS011;34033;48.672;9.376;2023-02-28T14:02:35;5.30;;;3.77;;
13311;SDS011;34033;48.672;9.376;2023-02-28T14:05:18;4.57;;;3.80;;
13311;SDS011;34033;48.672;9.376;2023-02-28T14:07:50;4.27;;;3.30;;
13311;SDS011;34033;48.672;9.376;2023-02-28T14:10:24;3.93;;;3.60;;
13311;SDS011;34033;48.672;9.376;2023-02-28T14:12:53;3.90;;;3.33;;
13311;SDS011;34033;48.672;9.376;2023-02-28T14:32:01;4.50;;;3.67;;
13311;SDS011;34033;48.672;9.376;2023-02-28T14:37:20;3.97;;;3.57;;
13311;SDS011;34033;48.672;9.376;2023-02-28T14:39:55;3.53;;;3.07;;
13311;SDS011;34033;48.672;9.376;2023-02-28T14:42:35;4.23;;;3.43;;
13311;SDS011;34033;48.672;9.376;2023-02-28T14:45:03;2.70;;;2.50;;
13311;SDS011;34033;48.672;9.376;2023-02-28T14:47:32;5.07;;;4.07;;
13311;SDS011;34033;48.672;9.376;2023-02-28T14:50:00;4.40;;;3.63;;
13311;SDS011;34033;48.672;9.376;2023-02-28T14:52:29;3.93;;;3.53;;
13311;SDS011;34033;48.672;9.376;2023-02-28T14:55:09;4.13;;;3.73;;
13311;SDS011;34033;48.672;9.376;2023-02-28T14:57:41;5.97;;;4.17;;
13311;SDS011;34033;48.672;9.376;2023-02-28T15:00:29;4.77;;;3.80;;
13311;SDS011;34033;48.672;9.376;2023-02-28T15:02:56;4.87;;;3.70;;
13311;SDS011;34033;48.672;9.376;2023-02-28T15:05:30;4.27;;;3.87;;
13311;SDS011;34033;48.672;9.376;2023-02-28T15:08:05;3.63;;;3.33;;
13311;SDS011;34033;48.672;9.376;2023-02-28T15:10:39;5.07;;;3.80;;
13311;SDS011;34033;48.672;9.376;2023-02-28T15:13:10;3.93;;;3.50;;
13311;SDS011;34033;48.672;9.376;2023-02-28T15:18:27;4.37;;;3.93;;
13311;SDS011;34033;48.672;9.376;2023-02-28T15:21:02;4.30;;;3.90;;
13311;SDS011;34033;48.672;9.376;2023-02-28T15:23:32;4.43;;;3.67;;
13311;SDS011;34033;48.672;9.376;2023-02-28T15:26:01;4.13;;;3.73;;
13311;SDS011;34033;48.672;9.376;2023-02-28T15:28:27;4.43;;;3.87;;
13311;SDS011;34033;48.672;9.376;2023-02-28T15:30:57;4.77;;;4.30;;
13311;SDS011;34033;48.672;9.376;2023-02-28T15:33:26;6.33;;;4.27;;
13311;SDS011;34033;48.672;9.376;2023-02-28T15:36:14;4.87;;;3.90;;
13311;SDS011;34033;48.672;9.376;2023-02-28T15:38:42;4.13;;;3.70;;
13311;SDS011;34033;48.672;9.376;2023-02-28T15:41:25;4.37;;;3.97;;
13311;SDS011;34033;48.672;9.376;2023-02-28T15:47:03;5.90;;;4.13;;
13311;SDS011;34033;48.672;9.376;2023-02-28T15:52:29;4.03;;;3.70;;
13311;SDS011;34033;48.672;9.376;2023-02-28T15:55:17;5.00;;;3.90;;
13311;SDS011;34033;48.672;9.376;2023-02-28T15:57:44;4.17;;;2.57;;
13311;SDS011;34033;48.672;9.376;2023-02-28T16:00:11;4.20;;;3.63;;
13311;SDS011;34033;48.672;9.376;2023-02-28T16:02:39;4.70;;;4.20;;
13311;SDS011;34033;48.672;9.376;2023-02-28T16:07:33;4.50;;;4.00;;
13311;SDS011;34033;48.672;9.376;2023-02-28T16:10:00;4.23;;;3.60;;
13311;SDS011;34033;48.672;9.376;2023-02-28T16:12:27;4.40;;;3.63;;
13311;SDS011;34033;48.672;9.376;2023-02-28T16:15:01;7.17;;;4.53;;
13311;SDS011;34033;48.672;9.376;2023-02-28T16:17:35;4.10;;;3.77;;
13311;SDS011;34033;48.672;9.376;2023-02-28T16:23:00;5.70;;;3.70;;
13311;SDS011;34033;48.672;9.376;2023-02-28T16:25:38;4.20;;;3.53;;
13311;SDS011;34033;48.672;9.376;2023-02-28T16:28:06;4.07;;;3.67;;
13311;SDS011;34033;48.672;9.376;2023-02-28T16:30:37;4.63;;;4.10;;
13311;SDS011;34033;48.672;9.376;2023-02-28T16:33:02;4.23;;;3.83;;
13311;SDS011;34033;48.672;9.376;2023-02-28T16:35:28;4.20;;;3.80;;
13311;SDS011;34033;48.672;9.376;2023-02-28T16:37:53;5.28;;;4.38;;
13311;SDS011;34033;48.672;9.376;2023-02-28T16:40:20;6.53;;;4.03;;
13311;SDS011;34033;48.672;9.376;2023-02-28T16:42:48;7.63;;;4.43;;
13311;SDS011;34033;48.672;9.376;2023-02-28T16:45:17;4.63;;;4.10;;
13311;SDS011;34033;48.672;9.376;2023-02-28T16:47:44;5.30;;;3.90;;
13311;SDS011;34033;48.672;9.376;2023-02-28T16:50:14;4.67;;;4.00;;
13311;SDS011;34033;48.672;9.376;2023-02-28T16:52:41;6.57;;;4.20;;
13311;SDS011;34033;48.672;9.376;2023-02-28T16:55:06;4.90;;;4.23;;
13311;SDS011;34033;48.672;9.376;2023-02-28T16:57:32;4.27;;;3.87;;
13311;SDS011;34033;48.672;9.376;2023-02-28T16:59:57;5.10;;;4.03;;
13311;SDS011;34033;48.672;9.376;2023-02-28T17:02:23;4.47;;;4.07;;
13311;SDS011;34033;48.672;9.376;2023-02-28T17:04:48;5.23;;;4.40;;
13311;SDS011;34033;48.672;9.376;2023-02-28T17:07:14;4.80;;;4.30;;
13311;SDS011;34033;48.672;9.376;2023-02-28T17:09:41;5.83;;;4.50;;
13311;SDS011;34033;48.672;9.376;2023-02-28T17:12:08;6.57;;;3.63;;
13311;SDS011;34033;48.672;9.376;2023-02-28T17:14:34;4.57;;;4.13;;
13311;SDS011;34033;48.672;9.376;2023-02-28T17:16:59;6.43;;;4.10;;
13311;SDS011;34033;48.672;9.376;2023-02-28T17:19:25;5.60;;;3.93;;
13311;SDS011;34033;48.672;9.376;2023-02-28T17:21:50;5.83;;;3.90;;
13311;SDS011;34033;48.672;9.376;2023-02-28T17:24:15;5.30;;;4.20;;
13311;SDS011;34033;48.672;9.376;2023-02-28T17:26:41;6.30;;;4.40;;
13311;SDS011;34033;48.672;9.376;2023-02-28T17:29:12;6.33;;;4.60;;
13311;SDS011;34033;48.672;9.376;2023-02-28T17:31:40;5.60;;;4.57;;
13311;SDS011;34033;48.672;9.376;2023-02-28T17:34:05;7.00;;;5.23;;
13311;SDS011;34033;48.672;9.376;2023-02-28T17:36:31;10.20;;;5.27;;
13311;SDS011;34033;48.672;9.376;2023-02-28T17:38:58;8.03;;;5.27;;
13311;SDS011;34033;48.672;9.376;2023-02-28T17:41:24;6.30;;;4.93;;
13311;SDS011;34033;48.672;9.376;2023-02-28T17:43:51;5.53;;;4.20;;